createdAt,value
2022-12-23T00:00:39.327Z,87.20
2022-12-23T00:03:06.364Z,86.54
2022-12-23T00:05:38.511Z,86.99
2022-12-23T00:08:06.623Z,86.62
2022-12-23T00:10:37.777Z,86.58
2022-12-23T00:13:23.146Z,86.70
2022-12-23T00:15:49.634Z,86.96
2022-12-23T00:18:16.200Z,86.13
2022-12-23T00:20:42.782Z,87.09
2022-12-23T00:23:09.287Z,86.49
2022-12-23T00:25:41.192Z,87.13
2022-12-23T00:28:14.709Z,88.03
2022-12-23T00:31:04.904Z,87.51
2022-12-23T00:33:40.075Z,87.59
2022-12-23T00:36:27.739Z,87.69
2022-12-23T00:39:14.249Z,89.46
2022-12-23T00:41:59.446Z,89.88
2022-12-23T00:44:26.477Z,91.21
2022-12-23T00:46:53.493Z,90.77
2022-12-23T00:49:39.633Z,90.60
2022-12-23T00:52:08.526Z,90.47
2022-12-23T00:54:35.239Z,90.53
2022-12-23T00:57:02.467Z,91.06
2022-12-23T00:59:29.049Z,91.16
2022-12-23T01:02:14.706Z,91.72
2022-12-23T01:04:59.982Z,92.37
2022-12-23T01:07:26.477Z,91.71
2022-12-23T01:09:52.994Z,90.96
2022-12-23T01:12:19.703Z,90.62
2022-12-23T01:14:46.311Z,90.57
2022-12-23T01:17:13.140Z,90.96
2022-12-23T01:19:40.243Z,90.31
2022-12-23T01:22:06.827Z,90.63
2022-12-23T01:24:33.868Z,90.89
2022-12-23T01:27:00.954Z,90.47
2022-12-23T01:29:28.861Z,90.71
2022-12-23T01:31:55.713Z,90.88
2022-12-23T01:34:22.597Z,91.59
2022-12-23T01:36:49.159Z,92.10
2022-12-23T01:39:15.782Z,92.02
2022-12-23T01:42:00.788Z,92.04
2022-12-23T01:44:45.783Z,91.44
2022-12-23T01:47:16.863Z,91.88
2022-12-23T01:49:43.781Z,91.74
2022-12-23T01:52:11.907Z,91.71
2022-12-23T01:54:39.279Z,91.71
2022-12-23T01:57:05.993Z,91.02
2022-12-23T01:59:51.522Z,91.25
2022-12-23T02:02:36.821Z,91.31
2022-12-23T02:05:03.587Z,91.16
2022-12-23T02:07:50.187Z,91.45
2022-12-23T02:10:16.999Z,91.51
2022-12-23T02:12:57.985Z,91.32
2022-12-23T02:16:06.184Z,91.38
2022-12-23T02:18:46.817Z,91.92
2022-12-23T02:21:19.414Z,91.77
2022-12-23T02:23:56.873Z,92.29
2022-12-23T02:27:06.129Z,91.93
2022-12-23T02:29:56.682Z,92.46
2022-12-23T02:32:32.245Z,91.90
2022-12-23T02:35:10.922Z,91.92
2022-12-23T02:37:43.856Z,91.98
2022-12-23T02:40:20.623Z,91.73
2022-12-23T02:43:04.714Z,91.88
2022-12-23T02:45:43.755Z,91.26
2022-12-23T02:48:34.380Z,91.71
2022-12-23T02:51:03.964Z,91.84
2022-12-23T02:53:45.799Z,92.05
2022-12-23T02:56:14.973Z,91.88
2022-12-23T02:58:47.769Z,91.73
2022-12-23T03:01:16.493Z,91.51
2022-12-23T03:03:45.792Z,91.91
2022-12-23T03:06:21.720Z,91.67
2022-12-23T03:08:51.053Z,91.75
2022-12-23T03:11:18.475Z,91.68
2022-12-23T03:14:32.957Z,91.03
2022-12-23T03:17:20.753Z,91.09
2022-12-23T03:19:57.828Z,90.78
2022-12-23T03:22:38.483Z,91.41
2022-12-23T03:25:25.459Z,91.66
2022-12-23T03:28:25.540Z,91.36
2022-12-23T03:30:57.403Z,91.51
2022-12-23T03:33:31.714Z,91.47
2022-12-23T03:36:09.811Z,91.78
2022-12-23T03:38:41.393Z,91.62
2022-12-23T03:41:17.388Z,92.42
2022-12-23T03:43:51.266Z,92.37
2022-12-23T03:46:29.528Z,91.48
2022-12-23T03:49:04.360Z,91.16
2022-12-23T03:51:44.313Z,90.26
2022-12-23T03:54:17.060Z,90.08
2022-12-23T03:56:51.530Z,88.31
2022-12-23T03:59:22.313Z,88.43
2022-12-23T04:02:23.656Z,89.11
2022-12-23T04:05:19.712Z,89.54
2022-12-23T04:08:11.241Z,89.82
2022-12-23T04:10:38.042Z,89.99
2022-12-23T04:13:04.847Z,90.05
2022-12-23T04:15:31.904Z,89.94
2022-12-23T04:17:58.813Z,90.66
2022-12-23T04:20:25.915Z,90.16
2022-12-23T04:22:52.495Z,89.96
2022-12-23T04:25:19.280Z,90.25
2022-12-23T04:27:45.917Z,90.59
2022-12-23T04:30:16.306Z,90.33
2022-12-23T04:32:42.868Z,90.39
2022-12-23T04:35:10.513Z,90.41
2022-12-23T04:37:37.834Z,90.60
2022-12-23T04:40:05.653Z,90.58
2022-12-23T04:42:32.268Z,90.82
2022-12-23T04:44:59.044Z,90.91
2022-12-23T04:47:25.773Z,91.34
2022-12-23T04:49:52.274Z,91.37
2022-12-23T04:52:18.923Z,91.54
2022-12-23T04:54:46.534Z,91.27
2022-12-23T04:57:13.898Z,92.26
2022-12-23T04:59:40.435Z,92.15
2022-12-23T05:02:08.099Z,91.17
2022-12-23T05:04:35.091Z,92.10
2022-12-23T05:07:01.769Z,92.26
2022-12-23T05:09:28.500Z,92.16
2022-12-23T05:11:55.408Z,92.29
2022-12-23T05:14:21.920Z,92.11
2022-12-23T05:16:48.501Z,92.46
2022-12-23T05:19:15.263Z,92.86
2022-12-23T05:21:41.795Z,93.58
2022-12-23T05:24:08.442Z,93.13
2022-12-23T05:26:35.011Z,93.01
2022-12-23T05:29:01.544Z,93.46
2022-12-23T05:31:28.180Z,93.54
2022-12-23T05:33:54.789Z,92.92
2022-12-23T05:36:21.862Z,93.26
2022-12-23T05:38:48.505Z,92.85
2022-12-23T05:41:16.862Z,93.12
2022-12-23T05:43:43.409Z,93.48
2022-12-23T05:46:10.003Z,93.65
2022-12-23T05:48:36.579Z,93.04
2022-12-23T05:51:03.176Z,93.16
2022-12-23T05:53:29.770Z,93.83
2022-12-23T05:55:56.355Z,93.45
2022-12-23T05:58:22.906Z,92.95
2022-12-23T06:00:49.465Z,93.20
2022-12-23T06:03:16.127Z,92.98
2022-12-23T06:05:43.887Z,93.39
2022-12-23T06:08:10.479Z,93.10
2022-12-23T06:10:37.157Z,93.22
2022-12-23T06:13:03.714Z,93.42
2022-12-23T06:15:30.275Z,93.37
2022-12-23T06:17:56.851Z,93.61
2022-12-23T06:20:23.378Z,93.69
2022-12-23T06:22:49.972Z,93.51
2022-12-23T06:25:16.676Z,92.93
2022-12-23T06:27:43.237Z,93.42
2022-12-23T06:30:10.435Z,93.17
2022-12-23T06:32:38.832Z,93.25
2022-12-23T06:35:07.343Z,92.77
2022-12-23T06:37:34.269Z,93.15
2022-12-23T06:40:00.856Z,92.95
2022-12-23T06:42:27.390Z,92.73
2022-12-23T06:44:53.919Z,93.25
2022-12-23T06:47:20.629Z,92.61
2022-12-23T06:49:47.210Z,92.68
2022-12-23T06:52:13.742Z,92.43
2022-12-23T06:54:40.251Z,92.88
2022-12-23T06:57:06.804Z,93.01
2022-12-23T06:59:33.323Z,93.04
2022-12-23T07:01:59.952Z,93.28
2022-12-23T07:04:26.651Z,93.33
2022-12-23T07:06:53.167Z,93.63
2022-12-23T07:09:19.729Z,93.26
2022-12-23T07:11:46.342Z,93.28
2022-12-23T07:14:12.838Z,93.46
2022-12-23T07:16:39.449Z,93.36
2022-12-23T07:19:06.103Z,93.70
2022-12-23T07:21:32.717Z,93.23
2022-12-23T07:23:59.320Z,93.52
2022-12-23T07:26:25.878Z,93.91
2022-12-23T07:28:52.480Z,93.67
2022-12-23T07:31:19.009Z,94.19
2022-12-23T07:33:45.748Z,93.82
2022-12-23T07:36:12.259Z,94.36
2022-12-23T07:38:38.798Z,93.96
2022-12-23T07:41:05.522Z,94.15
2022-12-23T07:43:32.043Z,94.41
2022-12-23T07:46:00.694Z,94.65
2022-12-23T07:48:27.992Z,94.12
2022-12-23T07:51:00.799Z,94.29
2022-12-23T07:53:27.667Z,94.33
2022-12-23T07:55:56.608Z,93.79
2022-12-23T07:58:23.839Z,94.26
2022-12-23T08:00:50.609Z,94.33
2022-12-23T08:03:17.375Z,94.48
2022-12-23T08:05:44.027Z,94.51
2022-12-23T08:08:10.602Z,94.95
2022-12-23T08:10:41.417Z,94.73
2022-12-23T08:13:11.097Z,94.08
2022-12-23T08:15:37.661Z,94.88
2022-12-23T08:18:04.310Z,94.84
2022-12-23T08:20:30.816Z,94.07
2022-12-23T08:22:57.321Z,94.34
2022-12-23T08:25:23.855Z,94.42
2022-12-23T08:27:51.320Z,94.63
2022-12-23T08:30:18.983Z,94.45
2022-12-23T08:32:45.535Z,94.50
2022-12-23T08:35:12.088Z,94.85
2022-12-23T08:37:38.685Z,94.98
2022-12-23T08:40:05.756Z,95.37
2022-12-23T08:42:32.315Z,94.77
2022-12-23T08:44:58.930Z,94.86
2022-12-23T08:47:25.432Z,94.78
2022-12-23T08:49:52.018Z,94.93
2022-12-23T08:52:18.565Z,94.88
2022-12-23T08:54:45.124Z,95.76
2022-12-23T08:57:11.659Z,95.47
2022-12-23T08:59:38.804Z,95.84
2022-12-23T09:02:05.494Z,95.34
2022-12-23T09:04:32.190Z,95.66
2022-12-23T09:06:58.796Z,95.97
2022-12-23T09:09:25.312Z,95.49
2022-12-23T09:11:51.821Z,95.78
2022-12-23T09:14:18.344Z,96.01
2022-12-23T09:16:44.975Z,96.16
2022-12-23T09:19:11.569Z,96.03
2022-12-23T09:21:38.066Z,95.83
2022-12-23T09:24:04.980Z,95.69
2022-12-23T09:26:31.776Z,96.50
2022-12-23T09:28:58.769Z,96.00
2022-12-23T09:31:30.444Z,96.07
2022-12-23T09:34:00.816Z,95.66
2022-12-23T09:36:27.396Z,95.82
2022-12-23T09:38:56.258Z,95.51
2022-12-23T09:41:38.435Z,96.05
2022-12-23T09:44:33.675Z,95.22
2022-12-23T09:47:04.696Z,94.82
2022-12-23T09:49:32.627Z,94.32
2022-12-23T09:52:03.806Z,94.94
2022-12-23T09:54:38.168Z,94.71
2022-12-23T09:57:23.134Z,95.02
2022-12-23T10:00:01.546Z,95.23
2022-12-23T10:02:31.282Z,95.50
2022-12-23T10:05:16.622Z,95.17
2022-12-23T10:08:32.740Z,95.01
2022-12-23T10:11:28.165Z,95.45
2022-12-23T10:14:09.876Z,95.43
2022-12-23T10:16:42.902Z,94.41
2022-12-23T10:19:20.384Z,94.76
2022-12-23T10:22:06.279Z,94.68
2022-12-23T10:24:42.446Z,93.96
2022-12-23T10:27:20.919Z,93.45
2022-12-23T10:29:47.467Z,92.99
2022-12-23T10:32:34.528Z,92.71
2022-12-23T10:35:15.754Z,92.53
2022-12-23T10:37:57.556Z,91.92
2022-12-23T10:40:33.087Z,91.17
2022-12-23T10:43:45.702Z,91.95
2022-12-23T10:46:29.226Z,90.81
2022-12-23T10:49:15.348Z,90.91
2022-12-23T10:51:52.649Z,90.47
2022-12-23T10:54:40.518Z,90.22
2022-12-23T10:57:08.605Z,89.95
2022-12-23T10:59:36.782Z,89.19
2022-12-23T11:02:12.730Z,89.62
2022-12-23T11:04:44.992Z,89.17
2022-12-23T11:07:44.021Z,88.72
2022-12-23T11:10:20.740Z,88.68
2022-12-23T11:12:53.023Z,88.80
2022-12-23T11:15:38.354Z,88.36
2022-12-23T11:18:19.505Z,88.39
2022-12-23T11:21:02.795Z,88.29
2022-12-23T11:23:35.993Z,88.45
2022-12-23T11:26:07.202Z,88.22
2022-12-23T11:28:37.631Z,89.16
2022-12-23T11:31:09.774Z,89.01
2022-12-23T11:33:40.028Z,89.82
2022-12-23T11:36:12.495Z,89.11
2022-12-23T11:39:06.858Z,88.81
2022-12-23T11:41:53.105Z,88.56
2022-12-23T11:44:34.102Z,88.74
2022-12-23T11:47:25.344Z,88.89
2022-12-23T11:50:00.203Z,88.97
2022-12-23T11:52:32.584Z,89.32
2022-12-23T11:55:04.914Z,89.60
2022-12-23T11:57:43.196Z,89.59
2022-12-23T12:00:26.349Z,89.38
2022-12-23T12:02:57.014Z,89.18
2022-12-23T12:05:35.697Z,88.96
2022-12-23T12:08:06.903Z,89.47
2022-12-23T12:10:36.460Z,89.34
2022-12-23T12:13:06.629Z,89.26
2022-12-23T12:15:44.663Z,89.84
2022-12-23T12:18:17.389Z,89.23
2022-12-23T12:20:53.185Z,89.48
2022-12-23T12:23:28.785Z,89.54
2022-12-23T12:26:00.727Z,90.64
2022-12-23T12:28:38.768Z,91.50
2022-12-23T12:31:28.099Z,90.61
2022-12-23T12:33:57.973Z,91.08
2022-12-23T12:36:34.886Z,90.51
2022-12-23T12:39:01.491Z,90.84
2022-12-23T12:41:35.751Z,91.02
2022-12-23T12:44:38.697Z,91.29
2022-12-23T12:47:52.256Z,91.50
2022-12-23T12:50:20.335Z,91.21
2022-12-23T12:52:46.965Z,91.55
2022-12-23T12:55:16.389Z,90.90
2022-12-23T12:57:43.173Z,91.22
2022-12-23T13:00:18.959Z,90.97
2022-12-23T13:03:15.606Z,91.08
2022-12-23T13:05:51.696Z,90.97
2022-12-23T13:08:23.321Z,91.13
2022-12-23T13:11:24.911Z,91.37
2022-12-23T13:14:03.770Z,90.95
2022-12-23T13:16:45.671Z,91.21
2022-12-23T13:19:27.202Z,90.71
2022-12-23T13:22:08.960Z,91.27
2022-12-23T13:24:53.972Z,91.45
2022-12-23T13:27:33.959Z,91.68
2022-12-23T13:30:13.187Z,91.25
2022-12-23T13:32:51.687Z,91.33
2022-12-23T13:35:42.463Z,91.31
2022-12-23T13:38:36.625Z,91.34
2022-12-23T13:41:52.460Z,91.10
2022-12-23T13:44:20.596Z,90.84
2022-12-23T13:47:12.202Z,91.62
2022-12-23T13:49:41.502Z,90.83
2022-12-23T13:52:48.815Z,91.32
2022-12-23T13:55:47.841Z,91.10
2022-12-23T13:58:18.282Z,91.81
2022-12-23T14:00:44.982Z,91.95
2022-12-23T14:03:14.124Z,91.59
2022-12-23T14:05:51.654Z,92.56
2022-12-23T14:08:31.542Z,92.99
2022-12-23T14:11:19.989Z,93.34
2022-12-23T14:13:49.679Z,93.37
2022-12-23T14:16:22.002Z,93.03
2022-12-23T14:19:02.099Z,93.64
2022-12-23T14:21:40.341Z,93.80
2022-12-23T14:24:47.577Z,93.77
2022-12-23T14:27:42.632Z,93.72
2022-12-23T14:30:32.928Z,94.51
2022-12-23T14:33:02.560Z,94.32
2022-12-23T14:35:37.000Z,93.96
2022-12-23T14:38:14.407Z,94.33
2022-12-23T14:40:50.449Z,94.88
2022-12-23T14:43:23.335Z,95.03
2022-12-23T14:45:57.604Z,95.09
2022-12-23T14:48:37.107Z,95.11
2022-12-23T14:51:09.829Z,94.96
2022-12-23T14:53:57.264Z,94.67
2022-12-23T14:56:35.855Z,94.86
2022-12-23T14:59:23.845Z,93.71
2022-12-23T15:02:00.433Z,94.07
2022-12-23T15:04:47.946Z,94.47
2022-12-23T15:07:26.264Z,93.94
2022-12-23T15:10:00.668Z,94.71
2022-12-23T15:12:34.034Z,95.11
2022-12-23T15:15:04.806Z,94.92
2022-12-23T15:17:36.640Z,94.62
2022-12-23T15:20:23.455Z,94.68
2022-12-23T15:22:50.843Z,94.92
2022-12-23T15:25:26.657Z,95.49
2022-12-23T15:28:01.188Z,94.86
2022-12-23T15:30:35.328Z,94.66
2022-12-23T15:33:15.997Z,95.24
2022-12-23T15:35:52.888Z,95.15
2022-12-23T15:38:21.300Z,94.89
2022-12-23T15:41:00.530Z,95.43
2022-12-23T15:43:27.399Z,95.48
2022-12-23T15:45:54.297Z,95.30
2022-12-23T15:48:31.763Z,95.60
2022-12-23T15:51:57.775Z,94.43
2022-12-23T15:54:27.005Z,95.45
2022-12-23T15:56:56.151Z,95.84
2022-12-23T15:59:27.840Z,95.42
2022-12-23T16:01:55.240Z,95.38
2022-12-23T16:04:29.435Z,94.64
2022-12-23T16:06:56.299Z,95.15
2022-12-23T16:09:30.755Z,95.70
2022-12-23T16:11:58.821Z,95.94
2022-12-23T16:14:32.451Z,94.99
2022-12-23T16:17:00.280Z,94.51
2022-12-23T16:19:51.798Z,95.38
2022-12-23T16:22:30.028Z,95.35
2022-12-23T16:24:56.512Z,95.11
2022-12-23T16:27:46.458Z,95.51
2022-12-23T16:30:24.134Z,95.68
2022-12-23T16:32:57.398Z,95.46
2022-12-23T16:35:30.640Z,96.02
2022-12-23T16:38:08.762Z,95.59
2022-12-23T16:40:35.426Z,95.00
2022-12-23T16:43:02.067Z,95.61
2022-12-23T16:45:32.060Z,95.14
2022-12-23T16:47:59.517Z,95.30
2022-12-23T16:50:27.054Z,95.21
2022-12-23T16:52:53.651Z,95.77
2022-12-23T16:55:20.748Z,95.54
2022-12-23T16:57:47.355Z,95.13
2022-12-23T17:00:17.470Z,95.72
2022-12-23T17:02:45.216Z,95.82
2022-12-23T17:05:17.276Z,95.41
2022-12-23T17:07:45.634Z,95.54
2022-12-23T17:10:14.560Z,95.29
2022-12-23T17:12:41.685Z,95.82
2022-12-23T17:15:12.666Z,95.74
2022-12-23T17:17:39.273Z,95.65
2022-12-23T17:20:09.333Z,95.15
2022-12-23T17:22:36.263Z,95.46
2022-12-23T17:25:03.161Z,94.68
2022-12-23T17:27:29.808Z,95.08
2022-12-23T17:29:56.356Z,94.83
2022-12-23T17:32:24.424Z,93.97
2022-12-23T17:34:51.246Z,93.35
2022-12-23T17:37:20.087Z,92.98
2022-12-23T17:39:47.791Z,93.25
2022-12-23T17:42:25.585Z,92.59
2022-12-23T17:44:52.534Z,92.41
2022-12-23T17:47:22.309Z,92.22
2022-12-23T18:33:08.739Z,90.46
2022-12-23T18:35:39.638Z,90.47
2022-12-23T18:38:06.237Z,90.46
2022-12-23T18:40:33.310Z,90.44
2022-12-23T18:43:00.322Z,91.11
2022-12-23T18:45:38.785Z,90.83
2022-12-23T18:48:07.288Z,91.17
2022-12-23T18:50:36.773Z,91.91
2022-12-23T18:53:04.181Z,92.16
2022-12-23T18:55:30.896Z,91.60
2022-12-23T18:57:59.450Z,92.04
2022-12-23T19:00:33.578Z,92.01
2022-12-23T19:03:00.239Z,91.61
2022-12-23T19:05:29.363Z,91.64
2022-12-23T19:07:57.702Z,91.64
2022-12-23T19:10:33.356Z,91.94
2022-12-23T19:13:00.803Z,91.52
2022-12-23T19:15:27.460Z,91.44
2022-12-23T19:17:54.129Z,91.42
2022-12-23T19:20:20.979Z,91.83
2022-12-23T19:22:48.817Z,91.54
2022-12-23T19:25:18.220Z,91.90
2022-12-23T19:27:46.080Z,92.00
2022-12-23T19:30:15.240Z,92.20
2022-12-23T19:32:41.807Z,92.15
2022-12-23T19:35:11.934Z,92.40
2022-12-23T19:37:38.513Z,92.68
2022-12-23T19:40:06.505Z,92.34
2022-12-23T19:42:33.967Z,91.97
2022-12-23T19:45:00.892Z,92.15
2022-12-23T19:47:27.485Z,92.06
2022-12-23T19:49:53.997Z,92.21
2022-12-23T19:52:20.558Z,91.95
2022-12-23T19:54:47.073Z,92.15
2022-12-23T19:57:13.643Z,92.12
2022-12-23T19:59:40.177Z,91.92
2022-12-23T20:02:06.815Z,91.43
2022-12-23T20:04:33.430Z,91.50
2022-12-23T20:06:59.948Z,91.23
2022-12-23T20:09:26.538Z,91.59
2022-12-23T20:11:53.105Z,91.38
2022-12-23T20:14:21.612Z,90.86
2022-12-23T20:16:48.604Z,90.24
2022-12-23T20:19:15.835Z,90.32
2022-12-23T20:21:42.817Z,90.45
2022-12-23T20:24:09.480Z,90.79
2022-12-23T20:26:36.115Z,90.72
2022-12-23T20:29:03.249Z,91.70
2022-12-23T20:31:31.764Z,91.19
2022-12-23T20:34:00.343Z,91.07
2022-12-23T20:36:30.009Z,91.21
2022-12-23T20:38:57.370Z,91.25
2022-12-23T20:41:26.296Z,90.85
2022-12-23T20:44:31.617Z,90.70
2022-12-23T20:46:40.162Z,90.78
2022-12-23T20:49:06.849Z,90.94
2022-12-23T20:51:33.362Z,90.53
2022-12-23T20:54:00.970Z,91.39
2022-12-23T20:56:29.366Z,90.89
2022-12-23T20:59:00.193Z,91.50
2022-12-23T21:01:30.934Z,91.60
2022-12-23T21:03:59.441Z,91.36
2022-12-23T21:06:27.119Z,91.75
2022-12-23T21:08:57.074Z,91.23
2022-12-23T21:11:23.772Z,91.72
2022-12-23T21:13:50.659Z,91.57
2022-12-23T21:16:17.500Z,91.86
2022-12-23T21:18:46.761Z,91.62
2022-12-23T21:21:13.308Z,91.51
2022-12-23T21:23:41.844Z,92.04
2022-12-23T21:26:14.608Z,91.77
2022-12-23T21:28:43.102Z,92.26
2022-12-23T21:31:10.610Z,92.29
2022-12-23T21:33:39.448Z,91.93
2022-12-23T21:36:07.478Z,91.94
2022-12-23T21:38:36.696Z,91.32
2022-12-23T21:41:06.365Z,92.32
2022-12-23T21:43:33.216Z,92.58
2022-12-23T21:46:05.545Z,92.28
2022-12-23T21:48:34.217Z,91.22
2022-12-23T21:51:21.752Z,92.19
2022-12-23T21:53:50.688Z,92.00
2022-12-23T21:56:19.908Z,92.93
2022-12-23T21:58:47.115Z,92.41
2022-12-23T22:01:19.131Z,92.73
2022-12-23T22:03:48.436Z,92.93
2022-12-23T22:06:21.470Z,92.51
2022-12-23T22:08:51.735Z,91.80
2022-12-23T22:11:21.648Z,93.49
2022-12-23T22:13:48.199Z,92.96
2022-12-23T22:16:17.430Z,93.07
2022-12-23T22:18:44.317Z,93.55
2022-12-23T22:21:14.860Z,93.34
2022-12-23T22:23:41.571Z,92.32
2022-12-23T22:26:10.558Z,92.33
2022-12-23T22:28:39.679Z,91.75
2022-12-23T22:31:29.936Z,92.12
2022-12-23T22:33:56.985Z,91.75
2022-12-23T22:36:23.627Z,91.63
2022-12-23T22:38:55.757Z,91.21
2022-12-23T22:41:23.337Z,90.86
2022-12-23T22:43:50.028Z,91.15
2022-12-23T22:46:18.397Z,90.87
2022-12-23T22:48:45.389Z,90.85
2022-12-23T22:51:15.727Z,91.19
2022-12-23T22:53:42.606Z,90.88
2022-12-23T22:56:11.782Z,91.38
2022-12-23T22:58:38.775Z,90.59
2022-12-23T23:01:06.005Z,90.96
2022-12-23T23:03:33.281Z,91.34
2022-12-23T23:06:03.359Z,91.05
2022-12-23T23:08:30.872Z,91.41
2022-12-23T23:10:59.922Z,91.64
2022-12-23T23:13:29.285Z,92.02
2022-12-23T23:15:56.371Z,91.69
2022-12-23T23:18:23.569Z,91.64
2022-12-23T23:20:50.721Z,92.33
2022-12-23T23:23:17.554Z,92.63
2022-12-23T23:25:44.225Z,92.54
2022-12-23T23:28:11.787Z,92.78
2022-12-23T23:30:39.497Z,92.41
2022-12-23T23:33:07.764Z,92.57
2022-12-23T23:35:35.123Z,92.21
2022-12-23T23:38:01.734Z,91.78
2022-12-23T23:40:28.431Z,91.83
2022-12-23T23:42:54.934Z,92.08
2022-12-23T23:45:21.516Z,92.23
2022-12-23T23:47:48.161Z,91.49
2022-12-23T23:50:15.290Z,92.02
2022-12-23T23:52:41.853Z,91.54
2022-12-23T23:55:08.934Z,92.15
2022-12-23T23:57:35.476Z,92.05
